< < Back
Terminal Aerodrome Forecast


Current Version              Previous Versions:   1  2  3  4  5  6  7  8  9  

Terminal Aerodrome Forecast

862
FTUS42 KJAX 041120
TAFJAX
TAF
KJAX 041120Z 0412/0512 24007KT P6SM VCSH SCT008 BKN015 BKN060
      TEMPO 0412/0415 5SM SHRA BR
     FM041500 27008KT P6SM VCSH SCT020 SCT035 OVC100
     FM041700 30010KT P6SM SCT020 BKN040 OVC100
     FM042000 29010KT P6SM SCT040 SCT150=

Latest METAR

333
SAUS80 KWBC 041700
MTRJAX
METAR KJAX 041656Z 33006KT 10SM SCT033 BKN060 25/17 A2975 RMK AO2 SLP076
T02500167


USA.gov is the U.S. government's official web portal to all federal, state and local government web resources and services.